createdAt,value
2019-01-11T00:01:48.880Z,101504.27
2019-01-11T00:04:16.690Z,101503.95
2019-01-11T00:06:44.461Z,101501.45
2019-01-11T00:09:12.288Z,101494.95
2019-01-11T00:11:40.012Z,101494.95
2019-01-11T00:14:07.629Z,101501.36
2019-01-11T00:16:35.338Z,101499.67
2019-01-11T00:19:07.993Z,101489.32
2019-01-11T00:21:35.963Z,101485.81
2019-01-11T00:24:04.989Z,101488.50
2019-01-11T00:26:32.731Z,101481.09
2019-01-11T00:29:00.493Z,101481.93
2019-01-11T00:31:27.877Z,101484.94
2019-01-11T00:33:56.182Z,101485.63
2019-01-11T00:36:24.020Z,101489.23
2019-01-11T00:38:51.943Z,101484.59
2019-01-11T00:41:19.820Z,101484.72
2019-01-11T00:43:47.643Z,101481.43
2019-01-11T00:46:15.360Z,101478.08
2019-01-11T00:48:43.076Z,101480.40
2019-01-11T00:51:10.553Z,101468.63
2019-01-11T00:53:38.013Z,101478.39
2019-01-11T00:56:05.711Z,101472.06
2019-01-11T00:58:33.620Z,101475.00
2019-01-11T01:01:01.078Z,101475.44
2019-01-11T01:03:29.179Z,101471.72
2019-01-11T01:05:56.820Z,101469.38
2019-01-11T01:08:30.413Z,101471.41
2019-01-11T01:10:54.609Z,101471.14
2019-01-11T01:13:22.758Z,101471.13
2019-01-11T01:15:50.473Z,101472.09
2019-01-11T01:18:18.261Z,101468.95
2019-01-11T01:20:45.951Z,101464.13
2019-01-11T01:23:13.287Z,101466.66
2019-01-11T01:25:41.667Z,101471.84
2019-01-11T01:28:09.151Z,101468.20
2019-01-11T01:30:36.968Z,101464.13
2019-01-11T01:33:04.909Z,101462.81
2019-01-11T01:35:32.915Z,101462.62
2019-01-11T01:38:00.705Z,101456.41
2019-01-11T01:40:27.948Z,101454.44
2019-01-11T01:42:55.194Z,101463.16
2019-01-11T01:45:22.728Z,101455.41
2019-01-11T01:47:50.995Z,101459.51
2019-01-11T01:50:18.805Z,101450.58
2019-01-11T01:52:47.085Z,101454.80
2019-01-11T01:55:14.983Z,101458.50
2019-01-11T01:57:42.463Z,101455.47
2019-01-11T02:00:14.539Z,101461.91
2019-01-11T02:02:42.353Z,101462.94
2019-01-11T02:05:10.269Z,101458.23
2019-01-11T02:07:38.435Z,101455.55
2019-01-11T02:10:08.612Z,101445.75
2019-01-11T02:12:36.310Z,101447.80
2019-01-11T02:15:05.001Z,101447.17
2019-01-11T02:17:32.597Z,101444.14
2019-01-11T02:20:00.378Z,101451.22
2019-01-11T02:22:27.878Z,101448.52
2019-01-11T02:24:55.566Z,101448.03
2019-01-11T02:27:44.601Z,101451.95
2019-01-11T02:30:22.744Z,101446.51
2019-01-11T02:32:52.857Z,101445.72
2019-01-11T02:35:20.947Z,101449.70
2019-01-11T02:37:48.377Z,101444.82
2019-01-11T02:40:16.002Z,101443.49
2019-01-11T02:42:44.095Z,101447.75
2019-01-11T02:45:15.339Z,101439.33
2019-01-11T02:47:42.522Z,101432.53
2019-01-11T02:50:13.332Z,101441.97
2019-01-11T02:52:41.627Z,101439.44
2019-01-11T02:55:09.728Z,101436.08
2019-01-11T02:57:37.464Z,101437.42
2019-01-11T03:00:13.884Z,101437.41
2019-01-11T03:02:42.146Z,101430.29
2019-01-11T03:05:10.503Z,101424.27
2019-01-11T03:07:38.024Z,101430.44
2019-01-11T03:10:10.478Z,101432.91
2019-01-11T03:12:38.137Z,101427.08
2019-01-11T03:15:06.430Z,101425.73
2019-01-11T03:17:33.627Z,101424.66
2019-01-11T03:20:01.274Z,101423.91
2019-01-11T03:22:28.970Z,101423.73
2019-01-11T03:24:56.435Z,101422.39
2019-01-11T03:27:23.811Z,101423.84
2019-01-11T03:29:51.207Z,101417.27
2019-01-11T03:32:19.125Z,101414.56
2019-01-11T03:35:06.386Z,101410.89
2019-01-11T03:37:34.300Z,101413.80
2019-01-11T03:40:02.261Z,101409.89
2019-01-11T03:42:29.652Z,101413.75
2019-01-11T03:44:57.573Z,101409.26
2019-01-11T03:47:25.414Z,101411.11
2019-01-11T03:49:55.033Z,101412.98
2019-01-11T03:52:22.952Z,101410.11
2019-01-11T03:54:50.519Z,101408.20
2019-01-11T03:57:18.390Z,101411.61
2019-01-11T03:59:46.293Z,101406.41
2019-01-11T04:02:13.877Z,101409.28
2019-01-11T04:04:41.672Z,101407.91
2019-01-11T04:07:09.329Z,101411.97
2019-01-11T04:09:37.603Z,101412.31
2019-01-11T04:12:05.298Z,101408.78
2019-01-11T04:14:33.121Z,101408.76
2019-01-11T04:17:00.736Z,101414.64
2019-01-11T04:19:28.786Z,101412.24
2019-01-11T04:22:08.154Z,101416.50
2019-01-11T04:25:01.748Z,101412.64
2019-01-11T04:27:29.087Z,101410.28
2019-01-11T04:29:56.761Z,101413.20
2019-01-11T04:32:24.369Z,101407.30
2019-01-11T04:34:52.310Z,101413.03
2019-01-11T04:37:20.614Z,101410.36
2019-01-11T04:39:48.244Z,101410.73
2019-01-11T04:42:15.902Z,101415.75
2019-01-11T04:44:43.278Z,101420.63
2019-01-11T04:47:11.017Z,101420.61
2019-01-11T04:49:39.210Z,101410.77
2019-01-11T04:52:07.228Z,101412.82
2019-01-11T04:54:34.573Z,101415.52
2019-01-11T04:57:03.014Z,101408.42
2019-01-11T04:59:30.826Z,101403.48
2019-01-11T05:01:58.228Z,101401.29
2019-01-11T05:04:25.867Z,101403.64
2019-01-11T05:06:53.409Z,101407.70
2019-01-11T05:09:21.047Z,101405.83
2019-01-11T05:11:48.436Z,101401.89
2019-01-11T05:14:16.289Z,101402.34
2019-01-11T05:16:43.556Z,101396.83
2019-01-11T05:19:11.246Z,101396.85
2019-01-11T05:21:38.987Z,101395.11
2019-01-11T05:24:06.355Z,101395.92
2019-01-11T05:26:34.790Z,101396.93
2019-01-11T05:29:02.262Z,101395.83
2019-01-11T05:31:30.117Z,101395.11
2019-01-11T05:33:57.356Z,101389.55
2019-01-11T05:36:24.855Z,101393.42
2019-01-11T05:38:53.085Z,101394.53
2019-01-11T05:41:20.884Z,101394.19
2019-01-11T05:43:48.723Z,101393.39
2019-01-11T05:46:16.385Z,101385.82
2019-01-11T05:48:43.970Z,101379.19
2019-01-11T05:51:11.501Z,101381.73
2019-01-11T05:53:39.538Z,101378.11
2019-01-11T05:56:09.821Z,101383.66
2019-01-11T05:58:48.556Z,101380.73
2019-01-11T06:01:16.352Z,101376.02
2019-01-11T06:03:44.202Z,101380.04
2019-01-11T06:06:11.383Z,101382.75
2019-01-11T06:08:39.741Z,101368.95
2019-01-11T06:11:07.443Z,101375.31
2019-01-11T06:13:35.084Z,101369.95
2019-01-11T06:16:04.245Z,101367.77
2019-01-11T06:18:31.864Z,101371.14
2019-01-11T06:21:03.393Z,101367.60
2019-01-11T06:23:31.147Z,101360.14
2019-01-11T06:25:59.318Z,101363.39
2019-01-11T06:28:26.458Z,101350.27
2019-01-11T06:30:53.671Z,101357.81
2019-01-11T06:33:21.460Z,101355.13
2019-01-11T06:35:49.629Z,101349.00
2019-01-11T06:38:17.707Z,101354.25
2019-01-11T06:40:45.205Z,101354.63
2019-01-11T06:43:12.754Z,101354.47
2019-01-11T06:45:40.483Z,101348.42
2019-01-11T06:48:16.223Z,101353.53
2019-01-11T06:50:43.586Z,101347.91
2019-01-11T06:53:10.821Z,101350.27
2019-01-11T06:55:38.102Z,101352.85
2019-01-11T06:58:05.920Z,101352.27
2019-01-11T07:00:33.312Z,101351.45
2019-01-11T07:03:01.076Z,101348.66
2019-01-11T07:05:29.175Z,101347.47
2019-01-11T07:07:57.089Z,101346.63
2019-01-11T07:10:24.677Z,101347.97
2019-01-11T07:12:52.443Z,101344.88
2019-01-11T07:15:20.154Z,101345.56
2019-01-11T07:17:47.813Z,101344.38
2019-01-11T07:20:15.288Z,101343.38
2019-01-11T07:22:43.020Z,101337.63
2019-01-11T07:25:11.430Z,101344.38
2019-01-11T07:27:46.439Z,101346.67
2019-01-11T07:30:14.157Z,101351.95
2019-01-11T07:32:42.165Z,101347.41
2019-01-11T07:35:10.283Z,101341.40
2019-01-11T07:37:37.916Z,101344.59
2019-01-11T07:40:07.017Z,101349.26
2019-01-11T07:42:34.781Z,101343.19
2019-01-11T07:45:03.219Z,101343.88
2019-01-11T07:47:30.524Z,101342.03
2019-01-11T07:49:58.526Z,101345.55
2019-01-11T07:52:26.304Z,101340.16
2019-01-11T07:54:53.859Z,101339.67
2019-01-11T07:57:21.494Z,101340.18
2019-01-11T07:59:49.117Z,101328.62
2019-01-11T08:02:16.849Z,101332.77
2019-01-11T08:04:44.695Z,101327.56
2019-01-11T08:07:12.686Z,101330.58
2019-01-11T08:09:40.180Z,101328.89
2019-01-11T08:12:07.713Z,101326.22
2019-01-11T08:14:35.357Z,101326.72
2019-01-11T08:17:03.460Z,101327.94
2019-01-11T08:19:31.255Z,101320.15
2019-01-11T08:21:58.529Z,101320.15
2019-01-11T08:24:26.359Z,101328.23
2019-01-11T08:26:54.960Z,101325.59
2019-01-11T08:29:23.230Z,101321.05
2019-01-11T08:31:50.445Z,101330.12
2019-01-11T08:34:17.715Z,101328.44
2019-01-11T08:36:45.291Z,101324.87
2019-01-11T08:39:12.885Z,101328.17
2019-01-11T08:41:40.628Z,101326.68
2019-01-11T08:44:07.997Z,101332.06
2019-01-11T08:46:36.139Z,101327.23
2019-01-11T08:49:03.765Z,101324.20
2019-01-11T08:51:31.218Z,101324.08
2019-01-11T08:53:58.744Z,101318.02
2019-01-11T08:56:26.358Z,101322.89
2019-01-11T08:58:53.804Z,101320.88
2019-01-11T09:01:21.223Z,101318.30
2019-01-11T09:03:49.301Z,101316.11
2019-01-11T09:06:16.695Z,101317.67
2019-01-11T09:08:44.199Z,101320.20
2019-01-11T09:11:11.964Z,101315.84
2019-01-11T09:13:39.623Z,101323.58
2019-01-11T09:16:07.836Z,101315.95
2019-01-11T09:18:42.566Z,101317.34
2019-01-11T09:21:11.460Z,101322.57
2019-01-11T09:23:40.606Z,101318.78
2019-01-11T09:26:08.882Z,101316.77
2019-01-11T09:28:36.863Z,101318.19
2019-01-11T09:31:04.690Z,101317.45
2019-01-11T09:33:32.375Z,101324.77
2019-01-11T09:36:00.038Z,101317.23
2019-01-11T09:38:27.422Z,101318.53
2019-01-11T09:40:55.227Z,101321.56
2019-01-11T09:43:23.176Z,101313.88
2019-01-11T09:45:50.938Z,101317.87
2019-01-11T09:48:18.595Z,101320.77
2019-01-11T09:50:46.335Z,101327.30
2019-01-11T09:53:13.952Z,101327.84
2019-01-11T09:55:41.757Z,101326.00
2019-01-11T09:58:09.462Z,101319.10
2019-01-11T10:00:36.782Z,101323.19
2019-01-11T10:03:06.637Z,101314.20
2019-01-11T10:05:34.423Z,101310.02
2019-01-11T10:08:01.977Z,101297.20
2019-01-11T10:10:29.807Z,101295.20
2019-01-11T10:12:57.651Z,101301.77
2019-01-11T10:15:25.295Z,101301.42
2019-01-11T10:17:53.260Z,101300.92
2019-01-11T10:20:20.738Z,101301.83
2019-01-11T10:22:48.759Z,101308.20
2019-01-11T10:25:16.153Z,101304.02
2019-01-11T10:27:43.315Z,101298.84
2019-01-11T10:30:16.477Z,101302.54
2019-01-11T10:32:44.622Z,101303.61
2019-01-11T10:35:12.323Z,101305.13
2019-01-11T10:37:39.786Z,101302.31
2019-01-11T10:40:09.595Z,101293.23
2019-01-11T10:42:37.118Z,101286.66
2019-01-11T10:45:07.853Z,101278.98
2019-01-11T10:47:35.822Z,101275.50
2019-01-11T10:50:05.345Z,101274.17
2019-01-11T10:52:33.017Z,101282.12
2019-01-11T10:55:01.059Z,101273.19
2019-01-11T10:57:28.446Z,101267.58
2019-01-11T10:59:56.225Z,101261.64
2019-01-11T11:02:23.644Z,101261.23
2019-01-11T11:04:51.519Z,101255.55
2019-01-11T11:07:18.785Z,101252.72
2019-01-11T11:09:46.010Z,101256.93
2019-01-11T11:12:13.532Z,101252.77
2019-01-11T11:14:41.574Z,101249.03
2019-01-11T11:17:09.054Z,101236.23
2019-01-11T11:19:36.852Z,101229.92
2019-01-11T11:22:04.687Z,101233.87
2019-01-11T11:24:32.066Z,101236.11
2019-01-11T11:26:59.688Z,101240.59
2019-01-11T11:29:27.273Z,101228.81
2019-01-11T11:31:54.849Z,101237.13
2019-01-11T11:34:26.683Z,101236.32
2019-01-11T11:36:54.267Z,101244.64
2019-01-11T11:39:21.867Z,101241.03
2019-01-11T11:41:49.699Z,101246.08
2019-01-11T11:44:17.787Z,101245.58
2019-01-11T11:46:45.172Z,101243.73
2019-01-11T11:49:13.102Z,101237.83
2019-01-11T11:51:41.503Z,101229.45
2019-01-11T11:54:08.775Z,101231.10
2019-01-11T11:56:36.487Z,101230.25
2019-01-11T11:59:04.132Z,101224.41
2019-01-11T12:01:31.782Z,101229.33
2019-01-11T12:03:59.303Z,101228.62
2019-01-11T12:06:26.535Z,101221.22
2019-01-11T12:08:54.187Z,101214.47
2019-01-11T12:11:22.031Z,101212.29
2019-01-11T12:13:50.659Z,101213.26
2019-01-11T12:16:18.026Z,101206.23
2019-01-11T12:18:45.913Z,101201.80
2019-01-11T12:21:13.440Z,101198.57
2019-01-11T12:23:40.840Z,101204.33
2019-01-11T12:26:08.799Z,101192.25
2019-01-11T12:28:36.730Z,101190.23
2019-01-11T12:31:04.910Z,101183.86
2019-01-11T12:33:33.064Z,101177.43
2019-01-11T12:36:01.161Z,101183.33
2019-01-11T12:38:29.032Z,101182.78
2019-01-11T12:40:56.434Z,101185.85
2019-01-11T12:43:24.300Z,101189.25
2019-01-11T12:45:51.602Z,101186.89
2019-01-11T12:48:19.093Z,101184.77
2019-01-11T12:50:46.655Z,101177.67
2019-01-11T12:53:14.898Z,101183.63
2019-01-11T12:55:42.378Z,101188.65
2019-01-11T12:58:10.168Z,101174.97
2019-01-11T13:00:38.554Z,101174.00
2019-01-11T13:03:06.742Z,101168.10
2019-01-11T13:05:34.002Z,101165.41
2019-01-11T13:08:01.858Z,101159.31
2019-01-11T13:10:29.525Z,101158.09
2019-01-11T13:13:00.005Z,101160.32
2019-01-11T13:15:27.402Z,101167.05
2019-01-11T13:17:54.827Z,101157.34
2019-01-11T13:20:23.203Z,101153.81
2019-01-11T13:22:51.403Z,101144.99
2019-01-11T13:25:19.121Z,101141.14
2019-01-11T13:27:46.590Z,101135.12
2019-01-11T13:30:16.611Z,101126.86
2019-01-11T13:32:44.522Z,101128.87
2019-01-11T13:35:12.323Z,101134.12
2019-01-11T13:37:40.637Z,101131.28
2019-01-11T13:40:12.802Z,101146.25
2019-01-11T13:42:40.743Z,101146.09
2019-01-11T13:45:09.374Z,101141.36
2019-01-11T13:47:36.724Z,101148.48
2019-01-11T13:50:11.219Z,101149.11
2019-01-11T13:52:38.361Z,101155.22
2019-01-11T13:55:06.385Z,101146.61
2019-01-11T13:57:34.172Z,101162.50
2019-01-11T14:00:01.742Z,101154.19
2019-01-11T14:02:29.794Z,101156.57
2019-01-11T14:04:57.665Z,101157.09
2019-01-11T14:07:25.948Z,101148.98
2019-01-11T14:09:53.674Z,101153.39
2019-01-11T14:12:21.182Z,101143.97
2019-01-11T14:14:49.322Z,101144.30
2019-01-11T14:17:17.609Z,101145.66
2019-01-11T14:19:45.000Z,101138.72
2019-01-11T14:22:13.782Z,101133.17
2019-01-11T14:24:41.421Z,101133.88
2019-01-11T14:27:09.070Z,101139.08
2019-01-11T14:29:36.359Z,101135.23
2019-01-11T14:32:06.726Z,101136.77
2019-01-11T14:34:35.315Z,101137.06
2019-01-11T14:37:02.956Z,101138.27
2019-01-11T14:39:30.908Z,101148.05
2019-01-11T14:41:59.266Z,101146.01
2019-01-11T14:44:26.918Z,101149.06
2019-01-11T14:46:54.225Z,101145.70
2019-01-11T14:49:21.663Z,101145.02
2019-01-11T14:51:48.783Z,101145.86
2019-01-11T14:54:16.485Z,101143.33
2019-01-11T14:56:44.420Z,101137.58
2019-01-11T14:59:12.446Z,101138.43
2019-01-11T15:01:39.999Z,101125.83
2019-01-11T15:04:08.344Z,101130.87
2019-01-11T15:06:36.072Z,101123.27
2019-01-11T15:09:07.105Z,101128.50
2019-01-11T15:11:34.397Z,101123.75
2019-01-11T15:14:01.886Z,101123.77
2019-01-11T15:16:29.465Z,101124.27
2019-01-11T15:18:56.807Z,101123.43
2019-01-11T15:21:24.739Z,101122.23
2019-01-11T15:23:55.646Z,101124.12
2019-01-11T15:26:29.977Z,101112.63
2019-01-11T15:28:58.137Z,101120.39
2019-01-11T15:31:25.689Z,101113.33
2019-01-11T15:33:53.760Z,101111.30
2019-01-11T15:36:21.115Z,101112.47
2019-01-11T15:38:49.575Z,101106.75
2019-01-11T15:41:17.341Z,101106.41
2019-01-11T15:43:44.532Z,101100.33
2019-01-11T15:46:15.645Z,101104.69
2019-01-11T15:48:48.659Z,101098.98
2019-01-11T15:51:23.153Z,101101.50
2019-01-11T15:53:52.656Z,101101.99
2019-01-11T15:56:24.687Z,101101.02
2019-01-11T15:58:52.219Z,101106.06
2019-01-11T16:01:21.122Z,101098.67
2019-01-11T16:03:49.163Z,101097.15
2019-01-11T16:06:31.639Z,101101.86
2019-01-11T16:09:17.326Z,101099.83
2019-01-11T16:11:50.035Z,101105.22
2019-01-11T16:14:55.767Z,101104.39
2019-01-11T16:17:23.779Z,101103.70
2019-01-11T16:19:51.257Z,101106.59
2019-01-11T16:22:18.518Z,101105.92
2019-01-11T16:24:46.126Z,101099.84
2019-01-11T16:27:14.724Z,101100.35
2019-01-11T16:29:42.171Z,101098.34
2019-01-11T16:32:09.579Z,101101.86
2019-01-11T16:34:37.505Z,101097.47
2019-01-11T16:37:05.642Z,101102.22
2019-01-11T16:39:33.328Z,101103.56
2019-01-11T16:42:01.085Z,101102.89
2019-01-11T16:44:28.348Z,101093.77
2019-01-11T16:46:56.222Z,101095.45
2019-01-11T16:49:26.575Z,101087.20
2019-01-11T16:51:54.128Z,101090.05
2019-01-11T16:54:21.530Z,101084.66
2019-01-11T16:56:49.277Z,101082.98
2019-01-11T16:59:16.519Z,101087.87
2019-01-11T17:01:44.070Z,101086.70
2019-01-11T17:04:11.314Z,101088.21
2019-01-11T17:06:39.227Z,101090.75
2019-01-11T17:09:08.102Z,101094.95
2019-01-11T17:11:35.734Z,101089.73
2019-01-11T17:14:04.952Z,101089.38
2019-01-11T17:16:32.855Z,101087.38
2019-01-11T17:19:00.558Z,101087.02
2019-01-11T17:21:30.923Z,101092.27
2019-01-11T17:23:58.668Z,101094.79
2019-01-11T17:26:26.533Z,101094.28
2019-01-11T17:28:54.294Z,101093.95
2019-01-11T17:31:21.866Z,101096.80
2019-01-11T17:33:49.338Z,101097.14
2019-01-11T17:36:17.345Z,101096.98
2019-01-11T17:38:44.856Z,101086.18
2019-01-11T17:41:12.379Z,101082.48
2019-01-11T17:43:39.769Z,101086.02
2019-01-11T17:46:07.473Z,101084.18
2019-01-11T17:48:35.695Z,101091.92
2019-01-11T17:51:03.944Z,101094.29
2019-01-11T17:53:31.821Z,101091.91
2019-01-11T17:55:59.466Z,101077.41
2019-01-11T17:58:27.135Z,101080.80
2019-01-11T18:00:54.604Z,101095.64
2019-01-11T18:03:22.725Z,101092.77
2019-01-11T18:05:50.437Z,101096.47
2019-01-11T18:08:18.073Z,101091.75
2019-01-11T18:10:45.703Z,101099.69
2019-01-11T18:13:14.034Z,101096.63
2019-01-11T18:15:41.600Z,101095.61
2019-01-11T18:18:08.849Z,101097.47
2019-01-11T18:20:36.531Z,101088.38
2019-01-11T18:23:07.065Z,101094.63
2019-01-11T18:25:34.868Z,101094.27
2019-01-11T18:28:02.752Z,101097.65
2019-01-11T18:30:30.534Z,101092.41
2019-01-11T18:32:58.037Z,101090.41
2019-01-11T18:35:25.486Z,101094.63
2019-01-11T18:37:53.948Z,101091.40
2019-01-11T18:40:28.678Z,101089.05
2019-01-11T18:42:55.918Z,101088.36
2019-01-11T18:45:28.601Z,101093.44
2019-01-11T18:47:53.434Z,101088.70
2019-01-11T18:50:22.456Z,101082.15
2019-01-11T18:52:50.704Z,101084.48
2019-01-11T18:55:18.781Z,101079.93
2019-01-11T18:57:47.166Z,101074.70
2019-01-11T19:00:20.904Z,101077.57
2019-01-11T19:02:48.394Z,101070.84
2019-01-11T19:05:16.074Z,101074.20
2019-01-11T19:07:46.140Z,101079.78
2019-01-11T19:10:15.468Z,101077.75
2019-01-11T19:12:43.243Z,101079.61
2019-01-11T19:15:14.699Z,101077.06
2019-01-11T19:17:42.162Z,101074.37
2019-01-11T19:20:13.677Z,101072.69
2019-01-11T19:22:41.475Z,101076.56
2019-01-11T19:25:10.495Z,101067.45
2019-01-11T19:27:39.354Z,101067.47
2019-01-11T19:30:14.750Z,101078.06
2019-01-11T19:32:42.379Z,101081.62
2019-01-11T19:35:09.908Z,101082.98
2019-01-11T19:37:37.615Z,101078.92
2019-01-11T19:40:06.151Z,101079.59
2019-01-11T19:42:33.918Z,101076.56
2019-01-11T19:45:01.646Z,101082.62
2019-01-11T19:47:29.430Z,101090.89
2019-01-11T19:49:56.827Z,101080.63
2019-01-11T19:52:24.644Z,101079.27
2019-01-11T19:54:51.813Z,101089.06
2019-01-11T19:57:19.653Z,101079.11
2019-01-11T19:59:47.463Z,101069.99
2019-01-11T20:02:15.245Z,101085.48
2019-01-11T20:04:46.680Z,101074.36
2019-01-11T20:07:14.516Z,101062.71
2019-01-11T20:09:41.869Z,101071.68
2019-01-11T20:12:09.494Z,101077.23
2019-01-11T20:14:37.265Z,101071.48
2019-01-11T20:17:05.180Z,101066.94
2019-01-11T20:19:33.461Z,101079.41
2019-01-11T20:22:00.854Z,101072.85
2019-01-11T20:24:29.596Z,101077.72
2019-01-11T20:26:58.423Z,101084.28
2019-01-11T20:29:25.827Z,101082.45
2019-01-11T20:31:53.098Z,101076.67
2019-01-11T20:34:21.252Z,101071.47
2019-01-11T20:37:03.322Z,101081.43
2019-01-11T20:39:31.606Z,101090.52
2019-01-11T20:41:59.945Z,101085.96
2019-01-11T20:44:27.196Z,101090.20
2019-01-11T20:46:54.989Z,101084.78
2019-01-11T20:49:22.567Z,101086.98
2019-01-11T20:51:50.987Z,101090.00
2019-01-11T20:54:18.946Z,101085.40
2019-01-11T20:56:46.630Z,101091.34
2019-01-11T20:59:14.352Z,101095.21
2019-01-11T21:01:42.511Z,101096.90
2019-01-11T21:04:10.634Z,101096.92
2019-01-11T21:06:38.345Z,101098.94
2019-01-11T21:09:10.978Z,101093.69
2019-01-11T21:11:38.877Z,101099.59
2019-01-11T21:14:06.323Z,101102.45
2019-01-11T21:16:34.200Z,101096.08
2019-01-11T21:19:02.372Z,101097.08
2019-01-11T21:21:30.495Z,101089.51
2019-01-11T21:23:57.889Z,101083.09
2019-01-11T21:26:25.946Z,101078.70
2019-01-11T21:28:53.852Z,101081.41
2019-01-11T21:31:21.972Z,101084.56
2019-01-11T21:33:49.551Z,101088.13
2019-01-11T21:36:17.283Z,101081.70
2019-01-11T21:38:44.678Z,101090.66
2019-01-11T21:41:13.453Z,101094.50
2019-01-11T21:43:40.725Z,101090.98
2019-01-11T21:46:08.278Z,101090.80
2019-01-11T21:48:35.952Z,101092.45
2019-01-11T21:51:07.781Z,101089.24
2019-01-11T21:53:36.630Z,101079.97
2019-01-11T21:56:04.799Z,101087.92
2019-01-11T21:58:33.216Z,101093.48
2019-01-11T22:01:00.886Z,101092.78
2019-01-11T22:03:28.548Z,101086.54
2019-01-11T22:05:55.833Z,101085.08
2019-01-11T22:08:22.977Z,101089.24
2019-01-11T22:10:50.619Z,101088.91
2019-01-11T22:13:18.113Z,101083.88
2019-01-11T22:15:45.652Z,101088.25
2019-01-11T22:18:13.785Z,101086.53
2019-01-11T22:20:41.358Z,101094.17
2019-01-11T22:23:09.135Z,101093.95
2019-01-11T22:25:36.649Z,101090.55
2019-01-11T22:28:04.122Z,101089.20
2019-01-11T22:30:32.170Z,101092.75
2019-01-11T22:32:59.778Z,101090.01
2019-01-11T22:35:27.300Z,101090.23
2019-01-11T22:37:54.871Z,101087.81
2019-01-11T22:40:23.211Z,101092.23
2019-01-11T22:42:54.275Z,101098.33
2019-01-11T22:45:21.695Z,101105.23
2019-01-11T22:47:49.038Z,101103.52
2019-01-11T22:50:16.654Z,101104.54
2019-01-11T22:52:44.154Z,101111.07
2019-01-11T22:55:12.870Z,101101.66
2019-01-11T22:57:40.229Z,101103.70
2019-01-11T23:00:34.698Z,101109.07
2019-01-11T23:03:05.249Z,101109.76
2019-01-11T23:05:32.482Z,101104.58
2019-01-11T23:08:05.476Z,101103.52
2019-01-11T23:11:09.158Z,101102.82
2019-01-11T23:13:36.537Z,101099.28
2019-01-11T23:16:28.005Z,101094.61
2019-01-11T23:18:56.998Z,101094.80
2019-01-11T23:21:24.815Z,101098.77
2019-01-11T23:23:52.034Z,101096.25
2019-01-11T23:26:19.735Z,101105.70
2019-01-11T23:28:47.626Z,101103.66
2019-01-11T23:31:15.429Z,101107.02
2019-01-11T23:33:43.169Z,101103.00
2019-01-11T23:36:10.843Z,101103.66
2019-01-11T23:38:38.798Z,101106.69
2019-01-11T23:41:06.758Z,101107.89
2019-01-11T23:43:34.253Z,101107.34
2019-01-11T23:46:03.099Z,101110.56
2019-01-11T23:48:30.618Z,101112.65
2019-01-11T23:50:58.307Z,101105.23
2019-01-11T23:53:26.463Z,101106.69
2019-01-11T23:55:54.728Z,101109.58
2019-01-11T23:58:27.952Z,101120.53
